This is the latest recevied weather packets stored in our database for station/object DO1TNP-13. If no packets are shown the sender has not sent any weather packets the latest 10 day(s).
| Time | Temp. | Humidity | Pressure | Rain* | Wind** | Luminosity | Snow |
|---|---|---|---|---|---|---|---|
| 1777750936 | 21.11° C | 10% | - | - | - | - | - |
| 1777749131 | 22.78° C | 10% | - | - | - | - | - |
| 1777747325 | 23.89° C | 10% | - | - | - | - | - |
| 1777745520 | 25° C | 83% | 640 hPa | - | - | - | - |
| 1777743715 | 25.56° C | 74% | 641 hPa | - | - | - | - |
| 1777741910 | 25.56° C | 73% | 641 hPa | - | - | - | - |
| 1777740104 | 26.11° C | 57% | 641 hPa | - | - | - | - |
| 1777738299 | 26.67° C | 50% | 642 hPa | - | - | - | - |
| 1777736494 | 27.78° C | 42% | 643 hPa | - | - | - | - |
| 1777729273 | 28.89° C | 41% | 644 hPa | - | - | - | - |
| 1777727468 | 29.44° C | 42% | 645 hPa | - | - | - | - |
| 1777725663 | 28.33° C | 42% | 644 hPa | - | - | - | - |
| 1777723858 | 28.33° C | 42% | 644 hPa | - | - | - | - |
| 1777644427 | 24.44° C | 49% | 639 hPa | - | - | - | - |
| 1777642622 | 24.44° C | 47% | 639 hPa | - | - | - | - |
| 1777640816 | 25° C | 47% | 640 hPa | - | - | - | - |
| 1777639012 | 24.44° C | 49% | 639 hPa | - | - | - | - |
| 1777637206 | 23.89° C | 46% | 639 hPa | - | - | - | - |
| 1777635401 | 23.89° C | 48% | 639 hPa | - | - | - | - |
| 1777633595 | 23.33° C | 52% | 638 hPa | - | - | - | - |
| 1777631790 | 22.78° C | 52% | 638 hPa | - | - | - | - |
| 1777629985 | 22.22° C | 58% | 637 hPa | - | - | - | - |
| 1777626374 | 21.11° C | 67% | 636 hPa | - | - | - | - |
| 1777624569 | 20° C | 82% | 635 hPa | - | - | - | - |
| 1777622765 | 18.89° C | 96% | 634 hPa | - | - | - | - |
* Rain since midnight (hover to see other rain measurements)
** Current wind speed in m/s (hover to see current wind gust speed)